This is the latest recevied weather packets stored in our database for station/object TG5ALY-16. If no packets are shown the sender has not sent any weather packets the latest 10 day(s).
| Time | Temp. | Humidity | Pressure | Rain* | Wind** | Luminosity | Snow |
|---|---|---|---|---|---|---|---|
| 1778187899 | 23.33° C | 62% | 1013 hPa | 0 mm | - | - | - |
| 1778187298 | 23.89° C | 58% | 1013 hPa | 0 mm | - | - | - |
| 1778186698 | 23.89° C | 58% | 1013 hPa | 0 mm | - | - | - |
| 1778186097 | 23.89° C | 60% | 1013 hPa | 0 mm | - | - | - |
| 1778185496 | 23.89° C | 60% | 1014 hPa | 0 mm | - | - | - |
| 1778184896 | 25° C | 52% | 1014 hPa | 0 mm | - | - | - |
| 1778184295 | 25° C | 52% | 1014 hPa | 0 mm | - | - | - |
| 1778183695 | 25° C | 51% | 1013 hPa | 0 mm | - | - | - |
| 1778183094 | 25° C | 34% | 1013 hPa | 0 mm | - | - | - |
| 1778182493 | 24.44° C | 34% | 1013 hPa | 0 mm | - | - | - |
| 1778181892 | 24.44° C | 34% | 1014 hPa | 0 mm | - | - | - |
| 1778181291 | 24.44° C | 34% | 1014 hPa | 0 mm | - | - | - |
| 1778180691 | 25.56° C | 36% | 1014 hPa | 0 mm | - | - | - |
| 1778180090 | 25° C | 35% | 1014 hPa | 0 mm | - | - | - |
| 1778179489 | 25° C | 35% | 1014 hPa | 0 mm | - | - | - |
| 1778178889 | 25° C | 35% | 1014 hPa | 0 mm | - | - | - |
| 1778178288 | 25.56° C | 27% | 1015 hPa | 0 mm | - | - | - |
| 1778177688 | 25.56° C | 27% | 1015 hPa | 0 mm | - | - | - |
| 1778177087 | 25° C | 33% | 1015 hPa | 0 mm | - | - | - |
| 1778176486 | 25° C | 33% | 1015 hPa | 0 mm | - | - | - |
| 1778175885 | 25° C | 35% | 1015 hPa | 0 mm | - | - | - |
| 1778175285 | 23.89° C | 47% | 1015 hPa | 0 mm | - | - | - |
| 1778174684 | 23.89° C | 47% | 1015 hPa | 0 mm | - | - | - |
| 1778174083 | 23.89° C | 47% | 1015 hPa | 0 mm | - | - | - |
| 1778173482 | 23.89° C | 46% | 1015 hPa | 0 mm | - | - | - |
* Rain latest hour (hover to see other rain measurements)
** Current wind speed in m/s (hover to see current wind gust speed)